Time;durP1;ratioP1;P1;durP2;ratioP2;P2;SDS_P1;SDS_P2;PMS_P1;PMS_P2;Temp;Humidity;BMP_temperature;BMP_pressure;BME280_temperature;BME280_humidity;BME280_pressure;Samples;Min_cycle;Max_cycle;Signal;HPM_P1;HPM_P2
2024/04/12 00:01:14;;;;;;;8.47;2.97;;;11.60;99.90;;;;;;5440925;26;21060;-69
2024/04/12 00:03:41;;;;;;;5.70;2.60;;;11.50;99.90;;;;;;5440427;26;20564;-70
2024/04/12 00:06:20;;;;;;;4.50;2.30;;;11.40;99.90;;;;;;5463420;26;20950;-68
2024/04/12 00:08:49;;;;;;;3.80;2.60;;;11.30;99.90;;;;;;5440790;26;20445;-68
2024/04/12 00:11:20;;;;;;;4.80;2.40;;;11.20;99.90;;;;;;5440420;26;20525;-68
2024/04/12 00:13:52;;;;;;;3.83;2.10;;;11.20;99.90;;;;;;5440140;26;20504;-68
2024/04/12 00:16:24;;;;;;;3.13;2.40;;;11.30;99.90;;;;;;5440241;26;20919;-69
2024/04/12 00:21:38;;;;;;;2.60;2.00;;;11.50;99.90;;;;;;5440354;26;20496;-69
2024/04/12 00:24:11;;;;;;;3.73;2.53;;;11.50;99.90;;;;;;5440587;26;20863;-69
2024/04/12 00:26:37;;;;;;;6.37;2.03;;;11.50;99.90;;;;;;5440257;26;20847;-69
2024/04/12 00:29:07;;;;;;;3.33;2.10;;;11.50;99.90;;;;;;5440412;26;21079;-70
2024/04/12 00:31:42;;;;;;;3.20;2.30;;;11.50;99.90;;;;;;5439821;26;20927;-70
2024/04/12 00:34:08;;;;;;;3.50;2.10;;;11.40;99.90;;;;;;5440209;26;21021;-68
2024/04/12 00:36:34;;;;;;;4.23;2.40;;;11.50;99.90;;;;;;5440295;26;20504;-68
2024/04/12 00:39:00;;;;;;;3.93;2.53;;;11.50;99.90;;;;;;5439913;26;20461;-67
2024/04/12 00:41:26;;;;;;;5.67;2.97;;;11.50;99.90;;;;;;5439680;26;20449;-69
2024/04/12 00:43:52;;;;;;;6.33;2.83;;;11.40;99.90;;;;;;5439916;26;20518;-69
2024/04/12 00:46:28;;;;;;;8.63;2.50;;;11.30;99.90;;;;;;5439948;26;20219;-68
2024/04/12 00:48:57;;;;;;;4.10;2.70;;;11.20;99.90;;;;;;5440578;26;20221;-68
2024/04/12 00:51:26;;;;;;;4.43;3.00;;;11.10;99.90;;;;;;5439899;26;20502;-68
2024/04/12 00:53:59;;;;;;;5.10;2.67;;;11.10;99.90;;;;;;5440032;26;20854;-69
2024/04/12 00:56:29;;;;;;;3.40;2.87;;;11.10;99.90;;;;;;5439847;26;20811;-68
2024/04/12 00:58:59;;;;;;;4.93;3.63;;;11.20;99.90;;;;;;5439845;26;20444;-68
2024/04/12 01:01:25;;;;;;;4.47;3.73;;;11.10;99.90;;;;;;5439789;26;20576;-69
2024/04/12 01:03:55;;;;;;;3.73;3.20;;;11.10;99.90;;;;;;5439796;26;20925;-68
2024/04/12 01:06:30;;;;;;;3.90;2.90;;;11.00;99.90;;;;;;5439768;26;20476;-70
2024/04/12 01:08:58;;;;;;;6.80;2.70;;;11.00;99.90;;;;;;5439619;26;20444;-68
2024/04/12 01:11:26;;;;;;;4.53;2.70;;;11.00;99.90;;;;;;5439772;26;20447;-68
2024/04/12 01:13:53;;;;;;;4.60;2.40;;;11.00;99.90;;;;;;5439422;26;20453;-69
2024/04/12 01:16:21;;;;;;;3.10;2.23;;;11.00;99.90;;;;;;5439285;26;20995;-68
2024/04/12 01:18:47;;;;;;;5.33;2.50;;;10.90;99.90;;;;;;5439676;26;21065;-67
2024/04/12 01:21:13;;;;;;;5.90;2.60;;;10.90;99.90;;;;;;5438950;26;20448;-67
2024/04/12 01:23:48;;;;;;;4.47;2.23;;;11.00;99.90;;;;;;5439371;26;20455;-68
2024/04/12 01:26:17;;;;;;;3.23;2.00;;;10.90;99.90;;;;;;5439606;26;20755;-68
2024/04/12 01:28:43;;;;;;;4.20;2.67;;;11.00;99.90;;;;;;5439118;26;20463;-68
2024/04/12 01:31:15;;;;;;;4.43;2.10;;;10.90;99.90;;;;;;5439235;26;20857;-68
2024/04/12 01:33:43;;;;;;;4.13;2.80;;;10.80;99.90;;;;;;5439330;26;21188;-69
2024/04/12 01:36:11;;;;;;;6.27;3.60;;;10.80;99.90;;;;;;5439171;26;21000;-68
2024/04/12 01:38:39;;;;;;;3.77;2.70;;;10.70;99.90;;;;;;5438960;26;20460;-68
2024/04/12 01:41:05;;;;;;;3.73;2.87;;;10.70;99.90;;;;;;5439156;26;21447;-68
2024/04/12 01:43:38;;;;;;;5.10;2.70;;;10.70;99.90;;;;;;5437496;26;20963;-68
2024/04/12 01:46:10;;;;;;;7.03;2.97;;;10.70;99.90;;;;;;5439061;26;20559;-68
2024/04/12 01:48:36;;;;;;;4.13;2.60;;;10.80;99.90;;;;;;5439234;26;20838;-68
2024/04/12 01:51:02;;;;;;;4.07;2.80;;;10.70;99.90;;;;;;5439109;26;20525;-69
2024/04/12 01:53:38;;;;;;;3.20;2.57;;;10.70;99.90;;;;;;5438623;26;20534;-69
2024/04/12 01:56:04;;;;;;;4.63;3.00;;;10.70;99.90;;;;;;5439435;26;20561;-68
2024/04/12 01:58:31;;;;;;;5.83;3.47;;;10.70;99.90;;;;;;5438770;26;20508;-69
2024/04/12 02:00:57;;;;;;;4.03;2.93;;;10.70;99.90;;;;;;5438748;26;20520;-68
2024/04/12 02:03:29;;;;;;;4.27;3.47;;;10.70;99.90;;;;;;5439008;26;20457;-69
2024/04/12 02:05:56;;;;;;;4.40;3.57;;;10.60;99.90;;;;;;5440950;26;20339;-69
2024/04/12 02:08:24;;;;;;;5.83;3.30;;;10.50;99.90;;;;;;5436677;26;20884;-68
2024/04/12 02:10:50;;;;;;;5.50;4.17;;;10.40;99.90;;;;;;5438518;26;20498;-68
2024/04/12 02:13:20;;;;;;;4.40;2.93;;;10.40;99.90;;;;;;5438692;26;20461;-68
2024/04/12 02:15:53;;;;;;;5.10;3.13;;;10.30;99.90;;;;;;5438500;26;20516;-68
2024/04/12 02:18:20;;;;;;;5.47;2.97;;;10.30;99.90;;;;;;5438568;26;21490;-68
2024/04/12 02:20:46;;;;;;;4.07;3.40;;;10.30;99.90;;;;;;5438834;26;20527;-69
2024/04/12 02:23:16;;;;;;;3.20;2.93;;;10.40;99.90;;;;;;5438364;26;20520;-68
2024/04/12 02:25:43;;;;;;;4.63;3.00;;;10.40;99.90;;;;;;5438380;26;20495;-68
2024/04/12 02:28:14;;;;;;;4.03;3.63;;;10.50;99.90;;;;;;5438287;26;20572;-67
2024/04/12 02:30:45;;;;;;;4.30;3.50;;;10.30;99.90;;;;;;5438164;26;20554;-67
2024/04/12 02:33:16;;;;;;;4.87;4.20;;;10.30;99.90;;;;;;5438391;26;20470;-69
2024/04/12 02:35:45;;;;;;;5.20;3.23;;;10.30;99.90;;;;;;5438099;26;20522;-69
2024/04/12 02:38:21;;;;;;;4.27;3.37;;;10.30;99.90;;;;;;5436460;26;20525;-68
2024/04/12 02:40:48;;;;;;;10.60;3.73;;;10.30;99.90;;;;;;5438623;26;20499;-68
2024/04/12 02:43:18;;;;;;;6.10;3.47;;;10.30;99.90;;;;;;5438216;26;20459;-69
2024/04/12 02:45:50;;;;;;;4.67;4.10;;;10.40;99.90;;;;;;5438450;26;20442;-69
2024/04/12 02:48:22;;;;;;;4.70;3.67;;;10.40;99.90;;;;;;5438335;26;20474;-69
2024/04/12 02:50:53;;;;;;;7.50;3.60;;;10.30;99.90;;;;;;5438414;26;21459;-69
2024/04/12 02:53:23;;;;;;;6.10;3.67;;;10.30;99.90;;;;;;5438634;26;20849;-68
2024/04/12 02:56:03;;;;;;;5.03;3.87;;;10.10;99.90;;;;;;5440936;26;20501;-68
2024/04/12 02:58:38;;;;;;;6.23;3.53;;;10.00;99.90;;;;;;5441261;26;20514;-69
2024/04/12 03:01:13;;;;;;;5.40;3.63;;;10.10;99.90;;;;;;5442004;26;20946;-68
2024/04/12 03:03:41;;;;;;;4.47;3.47;;;10.10;99.90;;;;;;5441679;26;20720;-68
2024/04/12 03:06:10;;;;;;;5.07;3.00;;;10.10;99.90;;;;;;5441709;26;21064;-67
2024/04/12 03:08:40;;;;;;;5.10;3.67;;;10.10;99.90;;;;;;5441988;26;20999;-68
2024/04/12 03:11:14;;;;;;;6.10;4.07;;;10.10;99.90;;;;;;5442319;26;20469;-69
2024/04/12 03:13:44;;;;;;;5.83;3.70;;;10.10;99.90;;;;;;5441474;26;20456;-69
2024/04/12 03:16:13;;;;;;;6.07;4.07;;;10.00;99.90;;;;;;5441458;26;20880;-68
2024/04/12 03:18:48;;;;;;;4.60;3.60;;;10.00;99.90;;;;;;5441238;26;20510;-67
2024/04/12 03:21:17;;;;;;;3.80;3.30;;;10.00;99.90;;;;;;5441507;26;20516;-68
2024/04/12 03:23:46;;;;;;;7.00;4.17;;;9.90;99.90;;;;;;5441421;26;21613;-68
2024/04/12 03:26:13;;;;;;;6.40;4.20;;;9.80;99.90;;;;;;5441428;26;20437;-67
2024/04/12 03:28:39;;;;;;;6.33;4.60;;;9.70;99.90;;;;;;5440811;26;20494;-69
2024/04/12 03:31:07;;;;;;;5.50;4.07;;;9.70;99.90;;;;;;5440808;26;20851;-68
2024/04/12 03:33:42;;;;;;;5.43;4.23;;;9.70;99.90;;;;;;5440972;26;21007;-69
2024/04/12 03:36:26;;;;;;;6.80;4.53;;;9.70;99.90;;;;;;5440975;26;20549;-68
2024/04/12 03:41:56;;;;;;;6.70;4.30;;;9.90;99.90;;;;;;5441134;26;20556;-68
2024/04/12 03:44:25;;;;;;;4.77;4.03;;;10.00;99.90;;;;;;5440968;26;20538;-68
2024/04/12 03:46:52;;;;;;;5.50;4.17;;;10.00;99.90;;;;;;5441265;26;20444;-68
2024/04/12 03:49:21;;;;;;;6.60;4.37;;;10.10;99.90;;;;;;5440847;26;20442;-66
2024/04/12 03:51:49;;;;;;;3.87;3.47;;;9.90;99.90;;;;;;5440828;26;20984;-67
2024/04/12 03:54:18;;;;;;;6.10;3.67;;;9.80;99.90;;;;;;5440648;26;20453;-67
2024/04/12 03:56:51;;;;;;;7.83;4.23;;;9.70;99.90;;;;;;5439246;26;20916;-68
2024/04/12 03:59:21;;;;;;;5.93;4.07;;;9.80;99.90;;;;;;5440638;26;21216;-67
2024/04/12 04:01:47;;;;;;;12.60;4.73;;;9.70;99.90;;;;;;5408422;26;20560;-68
2024/04/12 04:04:17;;;;;;;4.77;4.27;;;9.70;99.90;;;;;;5438912;26;20460;-68
2024/04/12 04:06:48;;;;;;;6.00;3.90;;;9.80;99.90;;;;;;5437590;26;20516;-67
2024/04/12 04:09:19;;;;;;;6.03;4.50;;;9.80;99.90;;;;;;5410279;26;20854;-68
2024/04/12 04:11:45;;;;;;;5.13;4.20;;;9.80;99.90;;;;;;5438633;26;20960;-68
2024/04/12 04:14:19;;;;;;;6.60;4.80;;;9.70;99.90;;;;;;5438792;26;20841;-67
2024/04/12 04:16:55;;;;;;;9.67;4.33;;;9.60;99.90;;;;;;5463458;26;20523;-68
2024/04/12 04:19:33;;;;;;;8.07;3.93;;;9.60;99.90;;;;;;5438736;26;20557;-69
2024/04/12 04:22:39;;;;;;;6.00;3.97;;;9.50;99.90;;;;;;5438713;26;20504;-69
2024/04/12 04:25:07;;;;;;;7.33;4.17;;;9.50;99.90;;;;;;5439129;26;21056;-68
2024/04/12 04:27:33;;;;;;;5.67;4.20;;;9.50;99.90;;;;;;5440179;26;20995;-67
2024/04/12 04:30:00;;;;;;;6.17;4.13;;;9.50;99.90;;;;;;5440608;26;20551;-68
2024/04/12 04:32:26;;;;;;;8.67;4.70;;;9.60;99.90;;;;;;5440403;26;20450;-68
2024/04/12 04:35:04;;;;;;;4.77;4.30;;;9.60;99.90;;;;;;5438844;26;20535;-69
2024/04/12 04:37:34;;;;;;;5.07;4.00;;;9.60;99.90;;;;;;5440270;26;20541;-69
2024/04/12 04:40:08;;;;;;;4.60;3.80;;;9.70;99.90;;;;;;5468652;26;20453;-68
2024/04/12 04:42:36;;;;;;;5.27;3.47;;;9.60;99.90;;;;;;5446508;26;20900;-67
2024/04/12 04:45:07;;;;;;;6.77;4.00;;;9.70;99.90;;;;;;5444474;26;20523;-68
2024/04/12 04:47:33;;;;;;;5.23;4.70;;;9.70;99.90;;;;;;5431512;26;20461;-67
2024/04/12 04:49:59;;;;;;;5.40;3.33;;;9.70;99.90;;;;;;5408645;26;20595;-68
2024/04/12 04:52:35;;;;;;;8.53;4.30;;;9.60;99.90;;;;;;5438275;26;20442;-67
2024/04/12 04:55:02;;;;;;;4.37;3.80;;;9.70;99.90;;;;;;5440052;26;20507;-69
2024/04/12 04:57:29;;;;;;;6.30;4.20;;;9.60;99.90;;;;;;5439718;26;20461;-69
2024/04/12 05:00:05;;;;;;;4.93;4.20;;;9.70;99.90;;;;;;5439674;26;21275;-68
2024/04/12 05:02:34;;;;;;;5.97;4.17;;;9.80;99.90;;;;;;5440078;26;20425;-68
2024/04/12 05:05:04;;;;;;;6.80;3.73;;;9.90;99.90;;;;;;5408301;26;20569;-69
2024/04/12 05:07:34;;;;;;;8.27;4.60;;;9.90;99.90;;;;;;5438066;26;20517;-69
2024/04/12 05:10:14;;;;;;;5.93;4.17;;;9.80;99.90;;;;;;5438408;26;20453;-68
2024/04/12 05:12:40;;;;;;;7.13;4.03;;;9.70;99.90;;;;;;5438079;26;20457;-69
2024/04/12 05:17:54;;;;;;;8.07;4.33;;;9.60;99.90;;;;;;5428888;26;20560;-68
2024/04/12 05:20:29;;;;;;;6.13;4.10;;;9.80;99.90;;;;;;5444782;26;20442;-68
2024/04/12 05:23:00;;;;;;;8.73;4.40;;;9.90;99.90;;;;;;5413422;26;20501;-69
2024/04/12 05:25:25;;;;;;;7.47;4.80;;;10.00;99.90;;;;;;5442180;26;20513;-68
2024/04/12 05:27:51;;;;;;;6.07;3.63;;;9.90;99.90;;;;;;5457111;26;20508;-69
2024/04/12 05:30:18;;;;;;;7.33;4.67;;;9.90;99.90;;;;;;5437665;26;20250;-69
2024/04/12 05:32:44;;;;;;;4.43;3.57;;;10.00;99.90;;;;;;5436998;26;20221;-69
2024/04/12 05:35:09;;;;;;;5.80;3.90;;;10.10;99.90;;;;;;5468027;26;20490;-70
2024/04/12 05:37:43;;;;;;;6.07;4.40;;;10.20;99.90;;;;;;5461831;26;20877;-69
2024/04/12 05:40:12;;;;;;;5.70;4.03;;;10.30;99.90;;;;;;5409327;26;20448;-69
2024/04/12 05:42:41;;;;;;;5.30;4.27;;;10.40;99.90;;;;;;5437415;26;20530;-69
2024/04/12 05:45:07;;;;;;;6.73;4.47;;;10.40;99.90;;;;;;5437126;26;20467;-69
2024/04/12 05:47:34;;;;;;;5.83;4.23;;;10.40;99.90;;;;;;5445812;26;20559;-69
2024/04/12 05:50:01;;;;;;;5.90;5.20;;;10.50;99.90;;;;;;5420860;26;20793;-69
2024/04/12 05:52:29;;;;;;;4.87;4.37;;;10.60;99.90;;;;;;5442553;26;20561;-69
2024/04/12 05:54:55;;;;;;;5.70;4.60;;;10.60;99.90;;;;;;5443399;26;20813;-68
2024/04/12 05:57:22;;;;;;;8.13;4.40;;;10.70;99.90;;;;;;5404452;26;20458;-69
2024/04/12 05:59:50;;;;;;;5.53;4.90;;;10.80;99.90;;;;;;5407415;26;20507;-69
2024/04/12 06:02:17;;;;;;;8.50;4.83;;;10.90;99.90;;;;;;5436820;26;20558;-68
2024/04/12 06:04:47;;;;;;;5.47;4.43;;;11.10;99.90;;;;;;5436954;26;20468;-69
2024/04/12 06:07:13;;;;;;;8.53;4.70;;;11.20;99.90;;;;;;5437052;26;20836;-67
2024/04/12 06:09:39;;;;;;;7.47;4.60;;;11.30;99.90;;;;;;5436806;26;20504;-69
2024/04/12 06:12:06;;;;;;;5.23;4.20;;;11.40;99.90;;;;;;5439634;26;20228;-67
2024/04/12 06:14:37;;;;;;;9.93;4.00;;;11.60;99.90;;;;;;5474729;26;20608;-68
2024/04/12 06:17:08;;;;;;;4.23;3.90;;;11.60;99.90;;;;;;5469295;26;20504;-69
2024/04/12 06:19:38;;;;;;;7.27;4.43;;;11.70;99.90;;;;;;5436717;26;20499;-68
2024/04/12 06:22:12;;;;;;;4.40;4.00;;;11.80;99.90;;;;;;5406793;26;20706;-69
2024/04/12 06:24:39;;;;;;;6.60;4.07;;;11.80;99.90;;;;;;5436912;26;20504;-69
2024/04/12 06:27:05;;;;;;;6.47;4.63;;;11.90;99.90;;;;;;5436499;26;20494;-68
2024/04/12 06:29:34;;;;;;;7.20;5.00;;;12.00;99.90;;;;;;5437329;26;20441;-69
2024/04/12 06:32:00;;;;;;;7.27;4.60;;;12.10;99.90;;;;;;5440307;26;20444;-68
2024/04/12 06:34:26;;;;;;;7.07;5.13;;;12.20;99.90;;;;;;5439627;26;20563;-68
2024/04/12 06:37:05;;;;;;;7.20;4.80;;;12.20;99.90;;;;;;5439962;26;20323;-69
2024/04/12 06:39:31;;;;;;;5.43;4.67;;;12.30;99.90;;;;;;5413125;26;20488;-68
2024/04/12 06:42:03;;;;;;;5.53;4.10;;;12.40;99.90;;;;;;5439512;26;20817;-68
2024/04/12 06:44:32;;;;;;;8.60;6.30;;;12.50;99.90;;;;;;5440160;26;20457;-68
2024/04/12 06:46:58;;;;;;;7.43;4.93;;;12.50;99.90;;;;;;5439764;26;20567;-68
2024/04/12 06:49:27;;;;;;;6.90;5.50;;;12.60;99.90;;;;;;5440038;26;20459;-69
2024/04/12 06:52:10;;;;;;;8.07;5.73;;;12.70;99.90;;;;;;5439926;26;20809;-69
2024/04/12 06:54:41;;;;;;;6.00;5.40;;;12.80;99.90;;;;;;5439715;26;21007;-69
2024/04/12 06:57:21;;;;;;;6.80;5.63;;;12.90;99.90;;;;;;5439656;26;20643;-68
2024/04/12 06:59:53;;;;;;;5.57;4.70;;;13.00;99.90;;;;;;5411842;26;20518;-69
2024/04/12 07:02:23;;;;;;;6.00;5.03;;;13.10;99.90;;;;;;5439840;26;20793;-69
2024/04/12 07:04:52;;;;;;;5.60;4.10;;;13.20;99.90;;;;;;5440301;26;20477;-69
2024/04/12 07:07:22;;;;;;;4.63;4.23;;;13.40;99.90;;;;;;5439865;26;20472;-70
2024/04/12 07:09:57;;;;;;;5.60;4.70;;;13.50;99.90;;;;;;5410950;26;20977;-68
2024/04/12 07:12:27;;;;;;;7.40;4.87;;;13.60;99.90;;;;;;5440467;26;20471;-68
2024/04/12 07:14:56;;;;;;;12.27;5.47;;;13.70;99.90;;;;;;5447916;26;20461;-69
2024/04/12 07:17:26;;;;;;;5.67;5.00;;;13.80;99.90;;;;;;5471009;26;20613;-68
2024/04/12 07:19:53;;;;;;;6.97;5.20;;;13.90;99.90;;;;;;5441668;26;20594;-69
2024/04/12 07:22:26;;;;;;;8.63;5.23;;;14.10;99.90;;;;;;5439186;26;20504;-67
2024/04/12 07:24:53;;;;;;;6.87;5.93;;;14.20;99.90;;;;;;5441594;26;20456;-69
2024/04/12 07:27:22;;;;;;;7.07;5.33;;;14.00;99.90;;;;;;5449722;26;20980;-69
2024/04/12 07:29:49;;;;;;;9.40;5.90;;;14.10;99.90;;;;;;5439405;26;20459;-68
2024/04/12 07:32:16;;;;;;;5.33;4.83;;;14.30;99.90;;;;;;5439002;26;20510;-67
2024/04/12 07:34:49;;;;;;;9.23;6.57;;;14.20;99.90;;;;;;5459048;26;20471;-68
2024/04/12 07:37:28;;;;;;;6.67;5.97;;;13.90;99.90;;;;;;5427656;26;20954;-67
2024/04/12 07:42:46;;;;;;;7.43;6.27;;;13.60;99.90;;;;;;5470377;26;20563;-67
2024/04/12 07:45:25;;;;;;;8.03;6.47;;;13.60;99.90;;;;;;5475610;26;20494;-69
2024/04/12 07:48:11;;;;;;;7.90;6.23;;;13.70;99.90;;;;;;5453838;26;20523;-69
2024/04/12 07:50:39;;;;;;;8.07;6.60;;;13.80;99.90;;;;;;5438892;26;20443;-68
2024/04/12 07:55:44;;;;;;;7.30;6.60;;;13.90;99.90;;;;;;5459794;26;20431;-68
2024/04/12 07:58:12;;;;;;;10.43;6.70;;;14.00;99.90;;;;;;5459393;26;20525;-69
2024/04/12 08:00:47;;;;;;;13.37;7.20;;;14.10;99.90;;;;;;5465328;26;20916;-68
2024/04/12 08:03:17;;;;;;;9.97;6.67;;;14.30;99.90;;;;;;5447345;26;21013;-68
2024/04/12 08:08:28;;;;;;;9.43;6.07;;;14.40;99.90;;;;;;5439405;26;21108;-69
2024/04/12 08:11:31;;;;;;;8.00;7.03;;;14.50;99.90;;;;;;5465551;26;20459;-69
2024/04/12 08:14:07;;;;;;;9.37;6.50;;;14.70;99.90;;;;;;5440616;26;20606;-69
2024/04/12 08:16:37;;;;;;;6.77;6.07;;;14.80;99.90;;;;;;5455744;26;20491;-69
2024/04/12 08:19:21;;;;;;;7.20;6.17;;;15.00;99.90;;;;;;5446056;26;20984;-69
2024/04/12 08:21:47;;;;;;;9.53;6.20;;;15.30;99.90;;;;;;5438836;26;20460;-68
2024/04/12 08:24:22;;;;;;;6.90;6.10;;;15.50;99.90;;;;;;5409098;26;20818;-68
2024/04/12 08:26:48;;;;;;;9.20;5.30;;;15.40;99.90;;;;;;5438617;26;20459;-68
2024/04/12 08:29:26;;;;;;;7.43;5.90;;;15.50;99.90;;;;;;5408806;26;20456;-68
2024/04/12 08:34:44;;;;;;;8.83;5.43;;;15.70;99.90;;;;;;5438725;26;20916;-68
2024/04/12 08:37:13;;;;;;;8.63;5.83;;;15.70;99.90;;;;;;5438486;26;20452;-68
2024/04/12 08:39:46;;;;;;;9.10;5.47;;;15.80;99.90;;;;;;5438210;26;20556;-69
2024/04/12 08:42:15;;;;;;;9.90;6.67;;;15.90;99.90;;;;;;5464912;26;20506;-68
2024/04/12 08:44:46;;;;;;;8.03;6.90;;;16.00;99.90;;;;;;5415478;26;20527;-68
2024/04/12 08:50:07;;;;;;;8.83;6.43;;;16.20;99.90;;;;;;5440475;26;20447;-71
2024/04/12 08:52:43;;;;;;;10.00;6.80;;;16.30;99.90;;;;;;5438054;26;20834;-67
2024/04/12 08:55:14;;;;;;;10.30;6.20;;;16.40;99.90;;;;;;5438565;26;20498;-69
2024/04/12 08:57:44;;;;;;;12.23;6.80;;;16.60;99.90;;;;;;5438698;26;20461;-69
2024/04/12 09:00:21;;;;;;;13.27;7.37;;;16.80;99.90;;;;;;5438280;26;20464;-68
2024/04/12 09:02:58;;;;;;;7.73;6.93;;;16.80;99.90;;;;;;5439580;26;20448;-68
2024/04/12 09:05:25;;;;;;;11.83;6.70;;;16.80;99.90;;;;;;5437945;26;20810;-69
2024/04/12 09:07:58;;;;;;;7.67;6.50;;;16.80;99.90;;;;;;5408049;26;20544;-70
2024/04/12 09:10:36;;;;;;;9.23;6.70;;;17.00;99.90;;;;;;5438317;26;20905;-68
2024/04/12 09:13:08;;;;;;;9.17;7.07;;;17.10;99.90;;;;;;5409159;26;20508;-68
2024/04/12 09:15:43;;;;;;;10.73;6.40;;;17.10;99.90;;;;;;5437978;26;20832;-68
2024/04/12 09:18:25;;;;;;;10.90;6.90;;;17.00;99.90;;;;;;5439889;26;20844;-68
2024/04/12 09:21:01;;;;;;;9.67;6.53;;;17.20;99.90;;;;;;5439565;26;20587;-68
2024/04/12 09:23:35;;;;;;;7.00;5.73;;;17.50;99.90;;;;;;5438238;26;20987;-68
2024/04/12 09:26:21;;;;;;;8.83;6.97;;;17.80;99.90;;;;;;5437851;26;20538;-68
2024/04/12 09:28:48;;;;;;;13.00;6.63;;;17.80;99.90;;;;;;5438448;26;20457;-68
2024/04/12 09:34:22;;;;;;;10.33;7.50;;;18.00;99.90;;;;;;5437853;26;21093;-68
2024/04/12 09:37:01;;;;;;;10.37;6.50;;;18.10;99.90;;;;;;5437625;26;21070;-69
2024/04/12 09:39:57;;;;;;;14.20;7.17;;;18.30;99.90;;;;;;5437657;26;20469;-68
2024/04/12 09:42:19;;;;;;;12.37;7.47;;;18.20;99.50;;;;;;5437457;26;20516;-68
2024/04/12 09:44:59;;;;;;;11.63;6.00;;;18.20;99.90;;;;;;5437434;26;20483;-69
2024/04/12 10:37:30;;;;;;;10.30;6.83;;;20.40;94.50;;;;;;5437032;26;20489;-69
2024/04/12 10:39:56;;;;;;;11.27;7.43;;;20.30;93.40;;;;;;5464092;26;20439;-68
2024/04/12 10:42:25;;;;;;;10.37;6.53;;;20.10;93.60;;;;;;5407445;26;20583;-68
2024/04/12 10:44:56;;;;;;;8.97;7.20;;;20.20;93.60;;;;;;5436462;26;20472;-69
2024/04/12 10:47:22;;;;;;;10.53;8.30;;;20.40;93.60;;;;;;5437483;26;20512;-70
2024/04/12 10:49:51;;;;;;;8.17;6.67;;;20.50;94.20;;;;;;5407615;26;20453;-69
2024/04/12 10:52:28;;;;;;;8.40;6.10;;;20.80;92.50;;;;;;5437331;26;20808;-68
2024/04/12 10:55:01;;;;;;;10.23;7.20;;;21.60;91.70;;;;;;5437364;26;20818;-70
2024/04/12 10:57:30;;;;;;;9.30;6.27;;;22.50;89.60;;;;;;5471192;26;20447;-69
2024/04/12 11:00:00;;;;;;;8.70;6.57;;;23.60;88.30;;;;;;5436793;26;20526;-69
2024/04/12 11:02:31;;;;;;;9.07;6.00;;;24.60;82.80;;;;;;5438736;26;20528;-68
2024/04/12 11:05:06;;;;;;;10.30;6.23;;;24.60;80.50;;;;;;5436734;26;20464;-70
2024/04/12 11:07:32;;;;;;;6.93;6.27;;;24.80;79.00;;;;;;5437276;26;20494;-70
2024/04/12 11:09:58;;;;;;;9.07;7.00;;;24.60;76.60;;;;;;5436842;26;20689;-69
2024/04/12 11:12:40;;;;;;;8.83;7.33;;;24.20;79.30;;;;;;5439002;26;20512;-70
2024/04/12 11:31:07;;;;;;;11.40;6.83;;;24.30;78.70;;;;;;5437149;26;20448;-69
2024/04/12 11:31:52;;;;;;;9.73;7.20;;;27.70;66.20;;;;;;5461693;26;21029;-70
2024/04/12 11:34:21;;;;;;;7.27;6.33;;;27.40;65.60;;;;;;5476712;26;20463;-70
2024/04/12 11:36:47;;;;;;;9.10;7.30;;;27.80;63.90;;;;;;5476846;26;20427;-71
2024/04/12 11:39:23;;;;;;;9.93;6.93;;;27.90;61.60;;;;;;5449113;26;20504;-70
2024/04/12 11:41:49;;;;;;;10.70;7.40;;;28.40;60.10;;;;;;5477886;26;20692;-70
2024/04/12 11:44:17;;;;;;;8.40;7.07;;;27.40;60.00;;;;;;5445422;26;20463;-69
2024/04/12 11:46:46;;;;;;;8.70;6.40;;;27.30;63.10;;;;;;5476956;26;20435;-71
2024/04/12 11:49:13;;;;;;;8.00;7.20;;;28.40;60.70;;;;;;5448460;26;20499;-71
2024/04/12 11:51:42;;;;;;;8.13;6.90;;;28.10;59.10;;;;;;5439356;26;20508;-70
2024/04/12 11:54:13;;;;;;;7.20;5.90;;;28.30;59.70;;;;;;5439066;26;20457;-70
2024/04/12 11:56:39;;;;;;;6.97;6.37;;;29.70;57.40;;;;;;5412209;26;20464;-70
2024/04/12 11:59:09;;;;;;;6.23;5.63;;;30.30;55.80;;;;;;5440357;26;20449;-69
2024/04/12 12:01:37;;;;;;;10.30;7.20;;;29.80;54.30;;;;;;5440725;26;20665;-70
2024/04/12 12:04:08;;;;;;;7.77;7.07;;;29.90;53.50;;;;;;5408912;26;20472;-70
2024/04/12 12:06:33;;;;;;;8.20;6.90;;;28.30;55.00;;;;;;5457952;26;20919;-69
2024/04/12 12:09:11;;;;;;;9.10;8.30;;;27.80;56.40;;;;;;5430899;26;20546;-70
2024/04/12 12:11:37;;;;;;;8.17;6.73;;;27.90;55.70;;;;;;5455062;26;20218;-69
2024/04/12 12:14:05;;;;;;;6.97;6.27;;;28.50;55.90;;;;;;5476790;26;20860;-70
2024/04/12 12:16:33;;;;;;;7.57;5.97;;;30.70;52.90;;;;;;5431351;26;20448;-70
2024/04/12 12:18:59;;;;;;;7.13;6.13;;;32.00;50.30;;;;;;5450029;26;20447;-70
2024/04/12 12:21:24;;;;;;;7.30;6.53;;;31.40;50.60;;;;;;5465650;26;20542;-70
2024/04/12 12:23:50;;;;;;;7.93;6.17;;;31.60;49.90;;;;;;5414496;26;20470;-70
2024/04/12 12:26:16;;;;;;;9.63;7.60;;;31.70;49.70;;;;;;5454572;26;20215;-70
2024/04/12 12:28:41;;;;;;;8.73;7.23;;;31.80;48.10;;;;;;5407552;26;20568;-69
2024/04/12 12:31:07;;;;;;;8.73;7.30;;;30.40;49.20;;;;;;5460393;26;20249;-69
2024/04/12 12:33:38;;;;;;;8.00;7.13;;;27.40;54.00;;;;;;5453926;26;20234;-69
2024/04/12 12:36:05;;;;;;;9.03;8.00;;;27.00;55.30;;;;;;5444860;26;20322;-69
2024/04/12 12:38:36;;;;;;;8.07;7.27;;;27.60;55.00;;;;;;5439143;26;21050;-71
2024/04/12 12:41:03;;;;;;;8.80;7.23;;;28.90;53.10;;;;;;5412866;26;20553;-69
2024/04/12 12:43:29;;;;;;;10.33;7.77;;;30.00;51.50;;;;;;5438504;26;20465;-69
2024/04/12 12:45:57;;;;;;;10.97;7.80;;;29.30;51.40;;;;;;5408186;26;21011;-69
2024/04/12 12:48:27;;;;;;;9.60;6.50;;;29.40;51.50;;;;;;5457042;26;20231;-69
2024/04/12 12:50:57;;;;;;;7.53;6.70;;;28.60;52.60;;;;;;5440061;26;20563;-68
2024/04/12 12:53:25;;;;;;;9.73;7.90;;;30.00;50.90;;;;;;5444428;26;20528;-68
2024/04/12 12:55:51;;;;;;;10.90;8.10;;;30.10;50.60;;;;;;5414986;26;20507;-69
2024/04/12 12:58:24;;;;;;;12.30;7.90;;;30.00;52.20;;;;;;5447842;26;21039;-70
2024/04/12 13:00:51;;;;;;;11.43;7.63;;;29.50;51.80;;;;;;5456131;26;20575;-70
2024/04/12 13:03:17;;;;;;;10.23;8.40;;;29.50;52.80;;;;;;5474291;26;20463;-69
2024/04/12 13:05:48;;;;;;;7.83;6.67;;;30.00;51.30;;;;;;5422164;26;20453;-69
2024/04/12 13:08:17;;;;;;;9.43;8.43;;;30.80;49.50;;;;;;5438101;26;20814;-68
2024/04/12 13:10:48;;;;;;;9.10;7.47;;;29.50;50.30;;;;;;5440318;26;21111;-68
2024/04/12 13:13:21;;;;;;;11.33;8.67;;;30.30;50.40;;;;;;5437794;26;20472;-70
2024/04/12 13:15:54;;;;;;;10.87;9.83;;;29.60;50.40;;;;;;5437981;26;20838;-68
2024/04/12 13:18:31;;;;;;;10.30;8.60;;;29.20;50.60;;;;;;5439605;26;20838;-69
2024/04/12 13:20:57;;;;;;;13.30;8.03;;;29.10;51.60;;;;;;5438390;26;20445;-68
2024/04/12 13:23:26;;;;;;;12.53;9.10;;;29.50;52.00;;;;;;5439861;26;21064;-68
2024/04/12 13:25:55;;;;;;;9.07;7.43;;;31.10;48.10;;;;;;5466772;26;20435;-69
2024/04/12 13:28:21;;;;;;;13.43;8.77;;;32.10;47.00;;;;;;5415070;26;20457;-70
2024/04/12 13:30:47;;;;;;;10.63;7.20;;;32.50;45.90;;;;;;5437370;26;20548;-70
2024/04/12 13:33:14;;;;;;;9.17;8.23;;;31.70;46.80;;;;;;5470263;26;20234;-70
2024/04/12 13:35:41;;;;;;;9.40;7.13;;;29.70;49.00;;;;;;5408006;26;20220;-69
2024/04/12 13:38:14;;;;;;;11.50;7.67;;;29.30;50.10;;;;;;5439478;26;20445;-69
2024/04/12 13:40:42;;;;;;;10.10;7.87;;;28.90;50.20;;;;;;5437945;26;20441;-69
2024/04/12 13:43:14;;;;;;;9.73;7.47;;;28.60;51.00;;;;;;5439533;26;20478;-70
2024/04/12 13:51:18;;;;;;;9.83;7.80;;;29.70;49.10;;;;;;5387927;26;20440;-72
2024/04/12 13:53:50;;;;;;;12.50;6.60;;;30.10;48.10;;;;;;5437028;26;20582;-71
2024/04/12 13:56:25;;;;;;;9.60;4.67;;;30.60;48.40;;;;;;5467911;26;20479;-71
2024/04/12 13:58:59;;;;;;;8.60;5.10;;;31.20;47.00;;;;;;5452376;26;20574;-69
2024/04/12 14:01:31;;;;;;;6.80;4.63;;;30.70;46.80;;;;;;5459650;26;20511;-69
2024/04/12 14:04:09;;;;;;;6.13;4.43;;;30.50;46.60;;;;;;5459927;26;20996;-70
2024/04/12 14:06:35;;;;;;;6.43;4.63;;;29.60;47.60;;;;;;5442577;26;20462;-68
2024/04/12 14:09:03;;;;;;;7.57;5.47;;;30.70;47.70;;;;;;5438666;26;20445;-68
2024/04/12 14:11:29;;;;;;;6.50;4.80;;;30.10;46.90;;;;;;5436975;26;20457;-70
2024/04/12 14:13:55;;;;;;;8.07;4.37;;;29.10;48.40;;;;;;5438809;26;21144;-69
2024/04/12 14:16:28;;;;;;;7.23;3.73;;;28.70;48.70;;;;;;5439183;26;20218;-70
2024/04/12 14:18:57;;;;;;;5.70;3.90;;;28.50;48.80;;;;;;5439415;26;20234;-70
2024/04/12 14:21:23;;;;;;;7.13;3.60;;;29.00;49.50;;;;;;5439333;26;20864;-70
2024/04/12 14:23:49;;;;;;;5.27;3.10;;;28.90;48.60;;;;;;5439401;26;20582;-71
2024/04/12 14:26:15;;;;;;;4.03;3.20;;;30.00;48.00;;;;;;5439385;26;20456;-68
2024/04/12 14:28:41;;;;;;;6.83;3.30;;;29.20;48.30;;;;;;5407879;26;20247;-70
2024/04/12 14:31:10;;;;;;;5.70;3.10;;;30.10;47.10;;;;;;5439460;26;20749;-71
2024/04/12 14:33:38;;;;;;;5.70;3.60;;;31.40;45.70;;;;;;5439176;26;20461;-69
2024/04/12 14:36:05;;;;;;;6.83;3.83;;;30.90;46.20;;;;;;5475263;26;20527;-69
2024/04/12 14:38:31;;;;;;;12.53;3.50;;;31.60;45.40;;;;;;5446143;26;20461;-71